Time;durP1;ratioP1;P1;durP2;ratioP2;P2;SDS_P1;SDS_P2;PMS_P1;PMS_P2;Temp;Humidity;BMP_temperature;BMP_pressure;BME280_temperature;BME280_humidity;BME280_pressure;Samples;Min_cycle;Max_cycle;Signal;HPM_P1;HPM_P2
2024/02/24 00:00:05;;;;;;;1.03;0.40;;;3.50;99.90;;;;;;4959878;28;20477;-79
2024/02/24 00:02:32;;;;;;;0.50;0.50;;;3.70;99.90;;;;;;4958584;29;20936;-79
2024/02/24 00:04:58;;;;;;;2.20;0.50;;;3.80;99.90;;;;;;4958698;29;20482;-79
2024/02/24 00:07:26;;;;;;;0.30;0.30;;;3.80;99.90;;;;;;4959411;29;20814;-79
2024/02/24 00:09:53;;;;;;;0.70;0.30;;;3.80;99.90;;;;;;4959072;29;20454;-79
2024/02/24 00:12:20;;;;;;;0.50;0.50;;;3.80;99.90;;;;;;4958577;29;20438;-79
2024/02/24 00:14:46;;;;;;;0.40;0.40;;;3.70;99.90;;;;;;4958314;28;21007;-79
2024/02/24 00:17:13;;;;;;;0.40;0.40;;;3.60;99.90;;;;;;4958955;29;20454;-79
2024/02/24 00:19:40;;;;;;;0.60;0.60;;;3.50;99.90;;;;;;4958747;28;20457;-79
2024/02/24 00:22:07;;;;;;;0.60;0.50;;;3.50;99.90;;;;;;4958553;28;20450;-79
2024/02/24 00:24:35;;;;;;;0.30;0.30;;;3.50;99.90;;;;;;4958795;29;20473;-79
2024/02/24 00:27:01;;;;;;;1.60;0.80;;;3.50;99.90;;;;;;4958257;29;20451;-79
2024/02/24 00:29:28;;;;;;;0.50;0.50;;;3.50;99.90;;;;;;4958916;29;20457;-79
2024/02/24 00:31:55;;;;;;;1.03;0.50;;;3.50;99.90;;;;;;4958375;29;20951;-79
2024/02/24 00:34:22;;;;;;;6.63;0.57;;;3.40;99.90;;;;;;4958094;28;20482;-79
2024/02/24 00:36:48;;;;;;;0.40;0.30;;;3.50;99.90;;;;;;4958029;29;20450;-79
2024/02/24 00:39:15;;;;;;;1.03;0.63;;;3.50;99.90;;;;;;4957865;28;20952;-79
2024/02/24 00:41:43;;;;;;;0.53;0.40;;;3.50;99.90;;;;;;4957967;29;20446;-79
2024/02/24 00:44:10;;;;;;;0.80;0.50;;;3.40;99.90;;;;;;4958206;29;20513;-79
2024/02/24 00:46:37;;;;;;;5.50;0.87;;;3.40;99.90;;;;;;4958123;28;20505;-79
2024/02/24 00:49:04;;;;;;;0.30;0.30;;;3.40;99.90;;;;;;4957629;29;20489;-79
2024/02/24 00:51:30;;;;;;;0.50;0.50;;;3.30;99.90;;;;;;4957587;28;20457;-79
2024/02/24 00:53:57;;;;;;;0.50;0.50;;;3.30;99.90;;;;;;4957490;29;20493;-79
2024/02/24 00:56:24;;;;;;;0.40;0.40;;;3.30;99.90;;;;;;4957340;28;20458;-79
2024/02/24 00:58:52;;;;;;;0.40;0.40;;;3.30;99.90;;;;;;4956998;29;20450;-79
2024/02/24 01:01:19;;;;;;;0.40;0.30;;;3.30;99.90;;;;;;4957210;29;20815;-79
2024/02/24 01:03:45;;;;;;;0.50;0.50;;;3.30;99.90;;;;;;4957062;29;20473;-79
2024/02/24 01:06:12;;;;;;;0.53;0.53;;;3.30;99.90;;;;;;4957132;29;20430;-79
2024/02/24 01:08:39;;;;;;;0.37;0.30;;;3.30;99.90;;;;;;4957458;29;20817;-79
2024/02/24 01:11:07;;;;;;;3.80;0.70;;;3.30;99.90;;;;;;4956654;28;20461;-79
2024/02/24 01:13:33;;;;;;;0.50;0.30;;;3.20;99.90;;;;;;4956482;28;20578;-79
2024/02/24 01:16:01;;;;;;;0.40;0.40;;;3.20;99.90;;;;;;4956785;29;20490;-79
2024/02/24 01:18:28;;;;;;;0.60;0.60;;;3.30;99.90;;;;;;4958040;29;20446;-79
2024/02/24 01:20:55;;;;;;;1.40;0.50;;;3.40;99.90;;;;;;4957656;28;20974;-79
2024/02/24 01:23:22;;;;;;;0.47;0.40;;;3.50;99.90;;;;;;4957574;29;20474;-79
2024/02/24 01:25:49;;;;;;;0.90;0.90;;;3.60;99.90;;;;;;4957641;29;20446;-80
2024/02/24 01:28:16;;;;;;;0.40;0.40;;;3.70;99.90;;;;;;4958490;28;20551;-80
2024/02/24 01:30:42;;;;;;;1.23;0.40;;;3.70;99.90;;;;;;4958352;29;20522;-80
2024/02/24 01:33:10;;;;;;;0.40;0.30;;;3.80;99.90;;;;;;4958516;28;20454;-80
2024/02/24 01:35:37;;;;;;;0.60;0.40;;;3.80;99.90;;;;;;4958005;28;20489;-80
2024/02/24 01:38:04;;;;;;;0.50;0.50;;;3.90;99.90;;;;;;4956878;29;20449;-79
2024/02/24 01:40:31;;;;;;;0.60;0.33;;;4.00;99.90;;;;;;4955886;29;20536;-79
2024/02/24 01:42:58;;;;;;;0.30;0.30;;;4.00;99.90;;;;;;4955859;29;20454;-79
2024/02/24 01:45:26;;;;;;;0.50;0.40;;;4.00;99.90;;;;;;4955772;29;20446;-79
2024/02/24 01:47:53;;;;;;;1.43;0.50;;;4.00;99.90;;;;;;4955961;28;20446;-79
2024/02/24 01:50:22;;;;;;;2.20;0.70;;;4.10;99.90;;;;;;4955785;29;20493;-79
2024/02/24 01:52:49;;;;;;;0.30;0.30;;;4.10;99.90;;;;;;4956048;29;20438;-79
2024/02/24 01:55:18;;;;;;;0.73;0.70;;;4.20;99.90;;;;;;4956086;29;20493;-78
2024/02/24 01:57:45;;;;;;;1.00;0.43;;;4.20;99.90;;;;;;4956063;29;20446;-78
2024/02/24 02:00:13;;;;;;;0.60;0.30;;;4.10;99.90;;;;;;4955481;29;20465;-78
2024/02/24 02:02:40;;;;;;;0.30;0.30;;;4.10;99.90;;;;;;4955713;29;20451;-78
2024/02/24 02:05:07;;;;;;;0.50;0.50;;;4.00;99.90;;;;;;4955027;29;20493;-78
2024/02/24 02:07:36;;;;;;;0.40;0.40;;;4.00;99.90;;;;;;4955412;29;20457;-78
2024/02/24 02:10:04;;;;;;;0.50;0.50;;;3.90;99.90;;;;;;4958532;28;20863;-78
2024/02/24 02:12:31;;;;;;;2.00;0.40;;;3.90;99.90;;;;;;4961280;29;20454;-78
2024/02/24 02:14:58;;;;;;;5.30;0.63;;;3.80;99.90;;;;;;4958880;29;20490;-78
2024/02/24 02:17:25;;;;;;;0.50;0.50;;;3.80;99.90;;;;;;4958800;29;20450;-78
2024/02/24 02:19:51;;;;;;;0.40;0.40;;;3.80;99.90;;;;;;4959405;29;20462;-78
2024/02/24 02:22:19;;;;;;;0.93;0.40;;;3.80;99.90;;;;;;4958775;28;20454;-78
2024/02/24 02:24:48;;;;;;;0.97;0.30;;;3.70;99.90;;;;;;4958545;28;20465;-78
2024/02/24 02:27:14;;;;;;;0.40;0.30;;;3.60;99.90;;;;;;4958664;28;20908;-78
2024/02/24 02:29:41;;;;;;;0.37;0.27;;;3.60;99.90;;;;;;4958588;29;20453;-78
2024/02/24 02:32:08;;;;;;;0.30;0.30;;;3.60;99.90;;;;;;4958308;29;20450;-78
2024/02/24 02:34:35;;;;;;;0.40;0.40;;;3.60;99.90;;;;;;4958024;29;20553;-78
2024/02/24 02:37:02;;;;;;;0.40;0.30;;;3.60;99.90;;;;;;4960102;29;20828;-78
2024/02/24 02:39:29;;;;;;;0.50;0.50;;;3.60;99.90;;;;;;4958881;29;20448;-78
2024/02/24 02:41:57;;;;;;;0.50;0.40;;;3.60;99.90;;;;;;4958366;29;20530;-78
2024/02/24 02:44:24;;;;;;;0.40;0.30;;;3.60;99.90;;;;;;4959968;29;20458;-80
2024/02/24 02:46:51;;;;;;;0.40;0.40;;;3.70;99.90;;;;;;4961241;28;20453;-79
2024/02/24 02:49:18;;;;;;;0.30;0.30;;;3.70;99.90;;;;;;4958147;29;20458;-79
2024/02/24 02:51:45;;;;;;;1.33;0.47;;;3.70;99.90;;;;;;4958103;29;20454;-79
2024/02/24 02:54:12;;;;;;;0.40;0.40;;;3.70;99.90;;;;;;4959390;29;20886;-79
2024/02/24 02:56:39;;;;;;;0.40;0.30;;;3.70;99.90;;;;;;4961588;28;20450;-79
2024/02/24 02:59:07;;;;;;;0.30;0.30;;;3.70;99.90;;;;;;4962361;29;20450;-79
2024/02/24 03:01:34;;;;;;;0.60;0.30;;;3.80;99.90;;;;;;4961694;29;20450;-79
2024/02/24 03:04:00;;;;;;;0.30;0.30;;;3.80;99.90;;;;;;4961915;28;20563;-79
2024/02/24 03:06:27;;;;;;;0.33;0.30;;;3.80;99.90;;;;;;4961307;29;20912;-79
2024/02/24 03:08:54;;;;;;;0.30;0.30;;;3.80;99.90;;;;;;4961487;28;20442;-79
2024/02/24 03:11:21;;;;;;;0.40;0.40;;;3.80;99.90;;;;;;4960379;29;20454;-79
2024/02/24 03:13:47;;;;;;;0.30;0.30;;;3.80;99.90;;;;;;4959635;29;20991;-79
2024/02/24 03:16:18;;;;;;;0.43;0.43;;;3.70;99.90;;;;;;4960159;28;20490;-79
2024/02/24 03:18:45;;;;;;;0.30;0.30;;;3.70;99.90;;;;;;4960742;29;20438;-79
2024/02/24 03:21:12;;;;;;;0.30;0.30;;;3.60;99.90;;;;;;4959253;28;20450;-79
2024/02/24 03:23:38;;;;;;;2.17;0.70;;;3.60;99.90;;;;;;4959810;29;20474;-79
2024/02/24 03:26:05;;;;;;;0.30;0.30;;;3.60;99.90;;;;;;4958624;28;20454;-79
2024/02/24 03:28:32;;;;;;;0.30;0.20;;;3.50;99.90;;;;;;4957310;29;20455;-79
2024/02/24 03:30:58;;;;;;;0.40;0.30;;;3.50;99.90;;;;;;4957381;28;20449;-79
2024/02/24 03:33:26;;;;;;;0.30;0.30;;;3.40;99.90;;;;;;4957705;28;20473;-79
2024/02/24 03:35:53;;;;;;;0.30;0.30;;;3.40;99.90;;;;;;4957687;28;20493;-79
2024/02/24 03:38:20;;;;;;;0.50;0.30;;;3.40;99.90;;;;;;4957220;29;20462;-79
2024/02/24 03:40:46;;;;;;;0.30;0.30;;;3.30;99.90;;;;;;4957193;28;20450;-79
2024/02/24 03:43:13;;;;;;;0.30;0.30;;;3.30;99.90;;;;;;4957989;28;20947;-79
2024/02/24 03:45:40;;;;;;;0.30;0.30;;;3.30;99.90;;;;;;4958529;29;20450;-79
2024/02/24 03:48:07;;;;;;;0.30;0.30;;;3.30;99.90;;;;;;4958017;29;20450;-79
2024/02/24 03:50:35;;;;;;;0.30;0.20;;;3.30;99.90;;;;;;4958415;29;20824;-79
2024/02/24 03:53:02;;;;;;;0.40;0.40;;;3.20;99.90;;;;;;4958567;29;20451;-79
2024/02/24 03:55:28;;;;;;;0.30;0.30;;;3.20;99.90;;;;;;4957885;29;20941;-79
2024/02/24 03:57:56;;;;;;;0.30;0.30;;;3.10;99.90;;;;;;4958079;28;20454;-79
2024/02/24 04:00:22;;;;;;;0.30;0.30;;;3.10;99.90;;;;;;4958073;28;20795;-79
2024/02/24 04:02:49;;;;;;;0.30;0.30;;;3.10;99.90;;;;;;4958108;28;20442;-79
2024/02/24 04:05:16;;;;;;;1.90;0.60;;;3.20;99.90;;;;;;4957436;28;20490;-79
2024/02/24 04:07:44;;;;;;;0.30;0.30;;;3.20;99.90;;;;;;4958639;29;20451;-79
2024/02/24 04:10:11;;;;;;;0.30;0.30;;;3.10;99.90;;;;;;4961126;29;20446;-79
2024/02/24 04:12:37;;;;;;;1.03;0.40;;;3.10;99.90;;;;;;4965013;28;20473;-80
2024/02/24 04:15:04;;;;;;;0.30;0.30;;;3.10;99.90;;;;;;4965333;28;20486;-80
2024/02/24 04:17:31;;;;;;;0.40;0.30;;;3.10;99.90;;;;;;4961719;28;20450;-80
2024/02/24 04:19:58;;;;;;;0.30;0.30;;;3.10;99.90;;;;;;4961215;29;20454;-80
2024/02/24 04:22:24;;;;;;;0.40;0.40;;;3.20;99.90;;;;;;4961204;28;20450;-80
2024/02/24 04:24:52;;;;;;;8.63;0.80;;;3.20;99.90;;;;;;4962836;29;20466;-81
2024/02/24 04:27:19;;;;;;;0.40;0.40;;;3.30;99.90;;;;;;4959285;28;20457;-81
2024/02/24 04:29:46;;;;;;;0.60;0.40;;;3.30;99.90;;;;;;4958564;28;20821;-81
2024/02/24 04:32:13;;;;;;;0.60;0.33;;;3.30;99.90;;;;;;4958706;28;20446;-79
2024/02/24 04:34:39;;;;;;;0.30;0.30;;;3.30;99.90;;;;;;4958803;29;20485;-79
2024/02/24 04:37:06;;;;;;;0.30;0.30;;;3.30;99.90;;;;;;4958934;28;20485;-79
2024/02/24 04:39:33;;;;;;;0.50;0.50;;;3.20;99.90;;;;;;4958556;29;20817;-79
2024/02/24 04:42:01;;;;;;;0.30;0.30;;;3.30;99.90;;;;;;4958426;28;20455;-79
2024/02/24 04:44:27;;;;;;;0.40;0.30;;;3.30;99.90;;;;;;4958222;28;20458;-79
2024/02/24 04:46:54;;;;;;;0.30;0.30;;;3.30;99.90;;;;;;4958282;29;20446;-80
2024/02/24 04:49:21;;;;;;;0.30;0.30;;;3.30;99.90;;;;;;4958186;29;20434;-79
2024/02/24 04:51:47;;;;;;;0.50;0.43;;;3.30;99.90;;;;;;4958319;29;20446;-79
2024/02/24 04:54:14;;;;;;;0.40;0.30;;;3.30;99.90;;;;;;4958155;29;20474;-79
2024/02/24 04:56:41;;;;;;;0.50;0.50;;;3.40;99.90;;;;;;4957929;29;20485;-79
2024/02/24 04:59:09;;;;;;;0.50;0.30;;;3.50;99.90;;;;;;4958061;29;20474;-79
2024/02/24 05:01:36;;;;;;;0.30;0.30;;;3.50;99.90;;;;;;4958547;29;20450;-79
2024/02/24 05:04:03;;;;;;;0.40;0.30;;;3.40;99.90;;;;;;4957356;28;20991;-79
2024/02/24 05:06:29;;;;;;;0.73;0.40;;;3.40;99.90;;;;;;4958045;29;20419;-79
2024/02/24 05:08:56;;;;;;;0.30;0.30;;;3.40;99.90;;;;;;4958045;29;20457;-79
2024/02/24 05:11:24;;;;;;;0.30;0.30;;;3.40;99.90;;;;;;4958355;29;20456;-79
2024/02/24 05:13:51;;;;;;;0.40;0.30;;;3.40;99.90;;;;;;4957532;29;20561;-79
2024/02/24 05:16:19;;;;;;;0.40;0.30;;;3.40;99.90;;;;;;4957711;28;20485;-79
2024/02/24 05:18:45;;;;;;;0.30;0.30;;;3.40;99.90;;;;;;4957573;29;20458;-79
2024/02/24 05:21:20;;;;;;;0.30;0.30;;;3.40;99.90;;;;;;4957677;28;20461;-79
2024/02/24 05:23:47;;;;;;;0.30;0.30;;;3.50;99.90;;;;;;4957552;29;20465;-79
2024/02/24 05:26:22;;;;;;;0.30;0.30;;;3.60;99.90;;;;;;4957758;29;20449;-80
2024/02/24 05:28:49;;;;;;;0.30;0.30;;;3.60;99.90;;;;;;4957187;29;20445;-80
2024/02/24 05:31:17;;;;;;;0.50;0.50;;;3.70;99.90;;;;;;4957571;28;20454;-80
2024/02/24 05:33:47;;;;;;;0.30;0.20;;;3.70;99.90;;;;;;4957770;29;20942;-79
2024/02/24 05:36:14;;;;;;;1.17;0.70;;;3.80;99.90;;;;;;4956743;29;20840;-79
2024/02/24 05:38:41;;;;;;;0.37;0.37;;;3.90;99.90;;;;;;4979417;23;20489;-77
2024/02/24 05:41:08;;;;;;;0.30;0.30;;;3.80;99.90;;;;;;4956229;29;20423;-79
2024/02/24 05:43:35;;;;;;;0.30;0.30;;;3.80;99.90;;;;;;4958243;28;20453;-79
2024/02/24 05:46:03;;;;;;;0.40;0.40;;;3.80;99.90;;;;;;4961864;29;20442;-79
2024/02/24 05:48:30;;;;;;;0.60;0.40;;;3.90;99.90;;;;;;4960605;29;20442;-78
2024/02/24 05:50:59;;;;;;;0.30;0.30;;;3.90;99.90;;;;;;4960000;28;20537;-79
2024/02/24 05:53:26;;;;;;;0.43;0.43;;;3.80;99.90;;;;;;4959815;28;20448;-79
2024/02/24 05:55:52;;;;;;;0.50;0.50;;;3.80;99.90;;;;;;4959874;28;20486;-79
2024/02/24 05:58:21;;;;;;;0.30;0.30;;;3.80;99.90;;;;;;4959734;28;20454;-79
2024/02/24 06:00:48;;;;;;;3.37;0.47;;;3.70;99.90;;;;;;4961025;29;20477;-78
2024/02/24 06:03:15;;;;;;;0.60;0.40;;;3.70;99.90;;;;;;4960412;28;20445;-78
2024/02/24 06:05:41;;;;;;;0.33;0.33;;;3.70;99.90;;;;;;4961754;29;20824;-77
2024/02/24 06:08:09;;;;;;;0.87;0.40;;;3.70;99.90;;;;;;4962595;28;20802;-77
2024/02/24 06:10:37;;;;;;;0.67;0.67;;;3.70;99.90;;;;;;4964360;29;20470;-78
2024/02/24 06:13:05;;;;;;;1.03;0.40;;;3.70;99.90;;;;;;4961299;28;20446;-78
2024/02/24 06:15:31;;;;;;;0.30;0.30;;;3.60;99.90;;;;;;4960410;29;20994;-78
2024/02/24 06:17:58;;;;;;;0.60;0.40;;;3.60;99.90;;;;;;4960497;28;20974;-78
2024/02/24 06:20:25;;;;;;;0.40;0.30;;;3.60;99.90;;;;;;4960768;29;20536;-78
2024/02/24 06:22:53;;;;;;;0.40;0.40;;;3.60;99.90;;;;;;4960601;28;20450;-80
2024/02/24 06:25:21;;;;;;;0.30;0.20;;;3.50;99.90;;;;;;4960654;28;20449;-78
2024/02/24 06:27:47;;;;;;;0.30;0.30;;;3.50;99.90;;;;;;4960167;28;20453;-77
2024/02/24 06:30:15;;;;;;;0.40;0.40;;;3.40;99.90;;;;;;4959713;29;20875;-78
2024/02/24 06:32:42;;;;;;;0.60;0.40;;;3.50;99.90;;;;;;4959563;29;20457;-78
2024/02/24 06:35:09;;;;;;;0.30;0.30;;;3.50;99.90;;;;;;4959410;28;20454;-78
2024/02/24 06:37:35;;;;;;;0.30;0.30;;;3.40;99.90;;;;;;4959776;28;20500;-79
2024/02/24 06:40:02;;;;;;;0.30;0.27;;;3.40;99.90;;;;;;4960125;29;20492;-79
2024/02/24 06:42:30;;;;;;;0.40;0.40;;;3.20;99.90;;;;;;4959941;29;20818;-79
2024/02/24 06:44:57;;;;;;;0.30;0.20;;;3.20;99.90;;;;;;4959534;29;20486;-79
2024/02/24 06:47:23;;;;;;;0.30;0.20;;;3.20;99.90;;;;;;4960246;29;20457;-79
2024/02/24 06:49:50;;;;;;;0.57;0.33;;;3.20;99.90;;;;;;4959742;28;20469;-79
2024/02/24 06:52:17;;;;;;;0.30;0.30;;;3.20;99.90;;;;;;4960020;29;20461;-79
2024/02/24 06:54:43;;;;;;;0.60;0.40;;;3.20;99.90;;;;;;4958826;28;20446;-79
2024/02/24 06:57:10;;;;;;;0.30;0.30;;;3.20;99.90;;;;;;4959735;28;20490;-79
2024/02/24 06:59:38;;;;;;;0.77;0.30;;;3.20;99.90;;;;;;4959460;28;20474;-79
2024/02/24 07:02:05;;;;;;;0.40;0.40;;;3.10;99.90;;;;;;4959313;28;20461;-79
2024/02/24 07:04:33;;;;;;;0.40;0.40;;;3.20;99.90;;;;;;4960105;28;20454;-79
2024/02/24 07:06:59;;;;;;;0.53;0.37;;;3.20;99.90;;;;;;4959589;28;20442;-79
2024/02/24 07:09:26;;;;;;;0.33;0.30;;;3.20;99.90;;;;;;4959722;28;20471;-79
2024/02/24 07:11:53;;;;;;;0.40;0.40;;;3.30;99.90;;;;;;4959536;29;20446;-79
2024/02/24 07:14:20;;;;;;;0.37;0.37;;;3.30;99.90;;;;;;4959514;29;20948;-79
2024/02/24 07:16:48;;;;;;;0.40;0.33;;;3.30;99.90;;;;;;4960290;29;20537;-79
2024/02/24 07:19:15;;;;;;;0.70;0.40;;;3.30;99.90;;;;;;4959918;29;20477;-79
2024/02/24 07:21:43;;;;;;;0.30;0.20;;;3.40;99.90;;;;;;4959704;28;20442;-80
2024/02/24 07:24:10;;;;;;;0.37;0.30;;;3.40;99.90;;;;;;4959510;29;20561;-80
2024/02/24 07:26:42;;;;;;;0.40;0.30;;;3.50;99.90;;;;;;4958987;28;20447;-80
2024/02/24 07:29:09;;;;;;;0.30;0.30;;;3.50;99.90;;;;;;4959947;29;20486;-80
2024/02/24 07:31:36;;;;;;;0.30;0.30;;;3.60;99.90;;;;;;4959582;29;20438;-80
2024/02/24 07:34:04;;;;;;;0.40;0.40;;;3.70;99.90;;;;;;4958992;29;20454;-80
2024/02/24 07:36:31;;;;;;;1.07;1.07;;;3.70;99.90;;;;;;4958805;29;20486;-80
2024/02/24 07:38:58;;;;;;;0.30;0.30;;;3.70;99.90;;;;;;4957813;29;20907;-80
2024/02/24 07:41:25;;;;;;;0.37;0.37;;;3.80;99.90;;;;;;4957702;29;20430;-79
2024/02/24 07:43:52;;;;;;;0.40;0.40;;;3.80;99.90;;;;;;4957528;29;20842;-80
2024/02/24 07:46:27;;;;;;;0.30;0.30;;;3.80;99.90;;;;;;4957894;29;20800;-79
2024/02/24 07:48:55;;;;;;;0.30;0.30;;;3.80;99.90;;;;;;4958714;29;20521;-80
2024/02/24 07:51:23;;;;;;;0.40;0.40;;;3.80;99.90;;;;;;4958831;29;20461;-80
2024/02/24 07:53:50;;;;;;;0.40;0.40;;;3.80;99.90;;;;;;4958531;28;20455;-80
2024/02/24 07:56:17;;;;;;;0.30;0.30;;;3.80;99.90;;;;;;4958818;29;20489;-80
2024/02/24 07:58:43;;;;;;;0.30;0.30;;;3.80;99.90;;;;;;4958508;29;20477;-80
2024/02/24 08:01:09;;;;;;;0.30;0.30;;;3.80;99.90;;;;;;4959285;28;20442;-80
2024/02/24 08:03:36;;;;;;;0.30;0.20;;;3.90;99.90;;;;;;4959154;28;20202;-80
2024/02/24 08:06:03;;;;;;;0.30;0.30;;;3.90;99.90;;;;;;4958408;28;20431;-80
2024/02/24 08:08:33;;;;;;;0.37;0.30;;;3.90;99.90;;;;;;4958363;29;20431;-80
2024/02/24 08:11:00;;;;;;;0.37;0.30;;;3.80;99.90;;;;;;4959202;29;20470;-80
2024/02/24 08:13:27;;;;;;;0.47;0.47;;;3.90;99.90;;;;;;4958462;29;20477;-80
2024/02/24 08:15:54;;;;;;;0.30;0.30;;;3.90;99.90;;;;;;4958439;29;20457;-80
2024/02/24 08:18:22;;;;;;;0.30;0.30;;;3.90;99.90;;;;;;4958008;29;20974;-80
2024/02/24 08:20:49;;;;;;;0.40;0.30;;;4.00;99.90;;;;;;4958830;28;20461;-80
2024/02/24 08:23:15;;;;;;;0.40;0.30;;;4.00;99.90;;;;;;4959210;29;20825;-80
2024/02/24 08:25:44;;;;;;;0.40;0.30;;;4.00;99.90;;;;;;4958355;28;20955;-80
2024/02/24 08:28:11;;;;;;;0.50;0.50;;;4.10;99.90;;;;;;4958401;28;20450;-80
2024/02/24 08:30:38;;;;;;;0.30;0.20;;;4.10;99.90;;;;;;4958012;28;20470;-80
2024/02/24 08:33:05;;;;;;;0.30;0.30;;;4.20;99.90;;;;;;4958039;29;20457;-80
2024/02/24 08:35:31;;;;;;;0.67;0.30;;;4.30;99.90;;;;;;4957979;29;20446;-80
2024/02/24 08:37:58;;;;;;;0.57;0.57;;;4.40;99.90;;;;;;4957739;29;20489;-80
2024/02/24 08:40:26;;;;;;;0.40;0.30;;;4.50;99.90;;;;;;4957472;29;20482;-80
2024/02/24 08:42:54;;;;;;;0.30;0.30;;;4.60;99.90;;;;;;4957648;28;20446;-80
2024/02/24 08:45:21;;;;;;;6.83;0.33;;;4.70;99.90;;;;;;4958241;29;20501;-80
2024/02/24 08:47:48;;;;;;;0.40;0.30;;;4.90;99.90;;;;;;4958227;29;20442;-80
2024/02/24 08:50:15;;;;;;;0.30;0.30;;;5.00;99.90;;;;;;4957618;28;20466;-80
2024/02/24 08:52:42;;;;;;;0.40;0.30;;;5.20;99.90;;;;;;4957624;29;20462;-80
2024/02/24 08:55:09;;;;;;;0.30;0.20;;;5.30;99.90;;;;;;4957662;28;20801;-80
2024/02/24 08:57:35;;;;;;;0.30;0.30;;;5.50;99.90;;;;;;4957249;28;21010;-80
2024/02/24 09:00:04;;;;;;;0.30;0.30;;;5.70;99.90;;;;;;4957502;29;20473;-80
2024/02/24 09:02:31;;;;;;;0.30;0.30;;;6.00;99.90;;;;;;4957060;29;20956;-80
2024/02/24 09:04:58;;;;;;;0.40;0.30;;;6.20;99.90;;;;;;4957623;28;20457;-80
2024/02/24 09:07:25;;;;;;;0.50;0.40;;;6.50;99.90;;;;;;4958058;28;20442;-80
2024/02/24 09:09:52;;;;;;;0.30;0.20;;;6.80;99.90;;;;;;4957577;28;20465;-80
2024/02/24 09:12:19;;;;;;;0.30;0.27;;;7.10;99.90;;;;;;4957555;29;20454;-80
2024/02/24 09:14:45;;;;;;;0.30;0.30;;;7.80;99.90;;;;;;4957843;29;20461;-80
2024/02/24 09:17:14;;;;;;;0.30;0.30;;;8.80;99.90;;;;;;4957892;29;20896;-80
2024/02/24 09:19:43;;;;;;;0.40;0.40;;;9.50;99.90;;;;;;4957118;28;20469;-80
2024/02/24 09:22:11;;;;;;;0.33;0.27;;;10.10;99.90;;;;;;4957440;28;20446;-80
2024/02/24 09:24:38;;;;;;;0.30;0.20;;;11.10;99.90;;;;;;4957188;29;20974;-80
2024/02/24 09:27:05;;;;;;;0.30;0.20;;;12.00;99.90;;;;;;4957780;29;20446;-80
2024/02/24 09:29:32;;;;;;;0.40;0.30;;;13.60;99.90;;;;;;4957691;29;20458;-80
2024/02/24 09:31:58;;;;;;;0.30;0.30;;;15.00;99.90;;;;;;4960863;28;20821;-80
2024/02/24 09:34:27;;;;;;;0.30;0.30;;;16.20;99.90;;;;;;4957558;29;20460;-80
2024/02/24 09:36:55;;;;;;;0.30;0.30;;;17.50;99.90;;;;;;4957717;29;20482;-80
2024/02/24 09:39:21;;;;;;;0.30;0.30;;;18.10;96.00;;;;;;4957584;28;20482;-80
2024/02/24 09:41:48;;;;;;;0.40;0.30;;;18.20;94.40;;;;;;4957227;29;20463;-80
2024/02/24 09:44:16;;;;;;;0.30;0.30;;;18.80;93.10;;;;;;4957398;29;20804;-80
2024/02/24 09:46:44;;;;;;;0.40;0.30;;;19.00;88.80;;;;;;4956987;29;20457;-80
2024/02/24 09:49:12;;;;;;;0.30;0.30;;;19.70;89.60;;;;;;4957454;28;20474;-80
2024/02/24 09:51:43;;;;;;;0.37;0.30;;;19.70;85.10;;;;;;4956971;29;20442;-80
2024/02/24 09:54:10;;;;;;;0.30;0.30;;;19.90;79.90;;;;;;4957124;29;20443;-80
2024/02/24 09:56:38;;;;;;;1.30;0.30;;;20.00;80.40;;;;;;4957148;28;20856;-80
2024/02/24 09:59:05;;;;;;;0.30;0.20;;;19.80;77.90;;;;;;4957299;29;20872;-80
2024/02/24 10:01:35;;;;;;;0.40;0.30;;;19.70;79.30;;;;;;4956626;28;20935;-80
2024/02/24 10:04:02;;;;;;;0.50;0.30;;;20.10;79.90;;;;;;4956799;29;20455;-80
2024/02/24 10:06:29;;;;;;;0.50;0.40;;;19.70;75.90;;;;;;4956509;29;20442;-80
2024/02/24 10:08:58;;;;;;;0.53;0.40;;;19.20;75.30;;;;;;4956257;29;20474;-80
2024/02/24 10:11:24;;;;;;;0.30;0.30;;;18.60;77.30;;;;;;4956546;28;20453;-80
2024/02/24 10:13:51;;;;;;;0.40;0.37;;;17.90;75.60;;;;;;4956153;29;20435;-82
2024/02/24 10:16:19;;;;;;;5.83;0.90;;;17.10;77.50;;;;;;4956658;29;20446;-83
2024/02/24 10:18:46;;;;;;;0.60;0.30;;;16.70;80.70;;;;;;4956641;28;20513;-80
2024/02/24 10:21:13;;;;;;;0.30;0.30;;;16.30;79.60;;;;;;4956063;29;20446;-80
2024/02/24 10:23:39;;;;;;;0.30;0.30;;;16.10;79.90;;;;;;4956974;29;20544;-80
2024/02/24 10:26:08;;;;;;;0.40;0.30;;;15.20;81.10;;;;;;4956353;28;20454;-80
2024/02/24 10:28:36;;;;;;;0.30;0.30;;;15.30;83.00;;;;;;4956468;29;20977;-80
2024/02/24 10:31:03;;;;;;;0.30;0.30;;;15.50;82.80;;;;;;4959647;28;20454;-80
2024/02/24 10:33:31;;;;;;;0.30;0.30;;;15.80;82.00;;;;;;4959661;28;20955;-80
2024/02/24 10:35:59;;;;;;;0.40;0.30;;;16.40;81.80;;;;;;4959613;28;20795;-80
2024/02/24 10:38:27;;;;;;;0.33;0.27;;;17.10;78.00;;;;;;4959515;29;20466;-80
2024/02/24 10:40:56;;;;;;;0.30;0.30;;;17.20;76.20;;;;;;4960104;29;20438;-80
2024/02/24 10:43:28;;;;;;;0.30;0.30;;;17.30;74.30;;;;;;4959272;29;20450;-79
2024/02/24 10:45:54;;;;;;;0.37;0.30;;;16.60;75.40;;;;;;4959493;29;20441;-80
2024/02/24 10:48:22;;;;;;;0.50;0.30;;;15.70;75.20;;;;;;4958865;29;20449;-80
2024/02/24 10:50:49;;;;;;;0.30;0.20;;;14.60;75.60;;;;;;4959162;29;20578;-80
2024/02/24 10:53:20;;;;;;;0.43;0.40;;;14.00;77.70;;;;;;4958595;28;20955;-79
2024/02/24 10:55:47;;;;;;;0.30;0.20;;;13.50;79.20;;;;;;4958703;29;20433;-79
2024/02/24 10:58:19;;;;;;;0.30;0.30;;;13.40;81.20;;;;;;4958772;29;20486;-79
2024/02/24 11:00:48;;;;;;;0.40;0.30;;;12.70;79.40;;;;;;4958925;29;20419;-79
2024/02/24 11:03:15;;;;;;;0.40;0.30;;;12.20;82.00;;;;;;4958810;29;20454;-79
2024/02/24 11:05:46;;;;;;;0.93;0.30;;;12.00;83.80;;;;;;4958390;29;20450;-79
2024/02/24 11:08:34;;;;;;;0.30;0.30;;;11.70;84.30;;;;;;4958424;29;20433;-79
2024/02/24 11:11:04;;;;;;;0.30;0.30;;;11.40;83.80;;;;;;4958272;29;20924;-79
2024/02/24 11:13:31;;;;;;;0.30;0.20;;;11.60;86.40;;;;;;4958286;29;20490;-79
2024/02/24 11:15:59;;;;;;;0.40;0.40;;;11.70;87.40;;;;;;4958275;29;20449;-79
2024/02/24 11:18:53;;;;;;;0.80;0.40;;;11.80;88.00;;;;;;4958096;29;20547;-79
2024/02/24 11:21:20;;;;;;;0.50;0.30;;;11.80;87.70;;;;;;4958981;29;20443;-79
2024/02/24 11:23:48;;;;;;;0.50;0.30;;;12.00;90.00;;;;;;4958441;28;20442;-80
2024/02/24 11:26:31;;;;;;;0.50;0.30;;;12.10;88.50;;;;;;4958188;29;20454;-79
2024/02/24 11:29:03;;;;;;;0.30;0.30;;;11.60;86.20;;;;;;4957825;29;20462;-80
2024/02/24 11:31:34;;;;;;;0.90;0.40;;;11.20;88.80;;;;;;4959130;29;20466;-79
2024/02/24 11:34:05;;;;;;;0.30;0.30;;;11.20;91.40;;;;;;4958702;29;20439;-79
2024/02/24 11:36:34;;;;;;;1.57;0.40;;;11.20;91.40;;;;;;4958474;29;20441;-79
2024/02/24 11:39:03;;;;;;;0.30;0.20;;;11.30;91.20;;;;;;4958380;28;20501;-79
2024/02/24 11:41:30;;;;;;;0.30;0.20;;;11.20;90.70;;;;;;4958495;28;20451;-80
2024/02/24 11:43:56;;;;;;;0.30;0.30;;;11.10;89.30;;;;;;4962556;28;20533;-79
2024/02/24 11:46:23;;;;;;;0.30;0.20;;;11.00;89.90;;;;;;4958256;29;20450;-81
2024/02/24 11:48:53;;;;;;;0.40;0.30;;;11.00;90.90;;;;;;4957972;28;20465;-81
2024/02/24 11:51:21;;;;;;;0.30;0.30;;;11.10;89.30;;;;;;4958355;29;20800;-78
2024/02/24 11:53:48;;;;;;;0.30;0.20;;;11.40;90.40;;;;;;4959124;29;20842;-78
2024/02/24 11:56:15;;;;;;;1.43;0.30;;;11.70;90.50;;;;;;4958076;29;20443;-80
2024/02/24 11:58:42;;;;;;;0.33;0.30;;;11.50;88.70;;;;;;4957618;29;20498;-79
2024/02/24 12:01:10;;;;;;;0.40;0.30;;;11.40;89.10;;;;;;4957525;28;20447;-80
2024/02/24 12:03:37;;;;;;;0.30;0.30;;;11.40;90.70;;;;;;4957763;29;20490;-80
2024/02/24 12:06:06;;;;;;;0.30;0.30;;;11.30;89.50;;;;;;4958459;28;20442;-80
2024/02/24 12:08:36;;;;;;;0.30;0.30;;;11.30;89.10;;;;;;4957183;29;20822;-80
2024/02/24 12:11:03;;;;;;;0.40;0.30;;;11.20;87.80;;;;;;4957726;28;20446;-80
2024/02/24 12:13:29;;;;;;;0.30;0.30;;;11.00;87.20;;;;;;4957869;29;20457;-80
2024/02/24 12:15:57;;;;;;;0.40;0.30;;;11.00;90.00;;;;;;4957484;29;20439;-80
2024/02/24 12:18:24;;;;;;;0.30;0.30;;;10.90;88.50;;;;;;4957849;29;20467;-79
2024/02/24 12:20:54;;;;;;;0.30;0.20;;;10.70;89.80;;;;;;4957358;29;20435;-80
2024/02/24 12:23:23;;;;;;;0.30;0.30;;;10.50;90.00;;;;;;4958484;29;20453;-80
2024/02/24 12:25:50;;;;;;;0.30;0.30;;;10.50;90.30;;;;;;4957985;28;20446;-80
2024/02/24 12:28:18;;;;;;;2.10;0.30;;;10.30;88.50;;;;;;4958073;29;20449;-80
2024/02/24 12:30:45;;;;;;;0.30;0.30;;;10.10;89.00;;;;;;4957379;29;20951;-80
2024/02/24 12:33:14;;;;;;;0.30;0.20;;;9.90;90.50;;;;;;4957606;29;20450;-79
2024/02/24 12:35:41;;;;;;;0.83;0.37;;;9.80;90.80;;;;;;4956863;29;20543;-80
2024/02/24 12:38:11;;;;;;;0.50;0.30;;;9.70;91.90;;;;;;4957097;28;20489;-80
2024/02/24 12:40:44;;;;;;;0.30;0.27;;;9.80;91.90;;;;;;4957619;29;20577;-80
2024/02/24 12:43:10;;;;;;;0.30;0.20;;;10.00;92.00;;;;;;4957497;29;20525;-80
2024/02/24 12:45:37;;;;;;;0.30;0.30;;;10.00;91.30;;;;;;4957741;29;20446;-80
2024/02/24 12:48:05;;;;;;;0.30;0.20;;;10.10;90.90;;;;;;4958531;29;20932;-80
2024/02/24 12:50:32;;;;;;;0.60;0.40;;;10.10;91.00;;;;;;4958510;28;20989;-80
2024/02/24 12:52:59;;;;;;;0.30;0.30;;;10.10;91.20;;;;;;4957124;28;20892;-80
2024/02/24 12:55:25;;;;;;;0.30;0.30;;;10.10;90.40;;;;;;4958127;29;20461;-80